Time;durP1;ratioP1;P1;durP2;ratioP2;P2;SDS_P1;SDS_P2;PMS_P1;PMS_P2;Temp;Humidity;BMP_temperature;BMP_pressure;BME280_temperature;BME280_humidity;BME280_pressure;Samples;Min_cycle;Max_cycle;Signal;HPM_P1;HPM_P2
2021/01/21 00:01:12;;;;;;;6.03;4.30;;;;;;;;;;15027537;29;20221;-78
2021/01/21 00:08:39;;;;;;;5.33;4.37;;;;;;;;;;14992650;29;20225;-82
2021/01/21 00:16:10;;;;;;;7.47;4.07;;;;;;;;;;15003734;29;20202;-83
2021/01/21 00:23:38;;;;;;;5.40;3.90;;;;;;;;;;15001720;29;20233;-81
2021/01/21 00:31:05;;;;;;;5.77;3.53;;;;;;;;;;15019953;29;20191;-82
2021/01/21 00:38:32;;;;;;;5.93;3.70;;;;;;;;;;14996149;29;20337;-81
2021/01/21 00:46:03;;;;;;;5.20;3.17;;;7.90;66.50;;;;;;14995529;29;20210;-77
2021/01/21 00:53:29;;;;;;;5.90;3.90;;;;;;;;;;15010260;29;20234;-79
2021/01/21 01:00:56;;;;;;;6.17;3.97;;;;;;;;;;15010117;29;20696;-77
2021/01/21 01:08:24;;;;;;;8.47;4.00;;;;;;;;;;14991727;29;20583;-77
2021/01/21 01:15:51;;;;;;;5.93;3.40;;;;;;;;;;14992382;29;20206;-79
2021/01/21 01:23:22;;;;;;;5.60;4.17;;;;;;;;;;14991538;29;20250;-77
2021/01/21 01:30:50;;;;;;;6.07;4.00;;;;;;;;;;14991849;29;20209;-78
2021/01/21 01:38:20;;;;;;;6.17;3.70;;;;;;;;;;14975094;29;20202;-77
2021/01/21 01:45:50;;;;;;;5.23;4.13;;;;;;;;;;14992027;29;20281;-78
2021/01/21 01:53:17;;;;;;;4.80;3.90;;;;;;;;;;14997545;29;20942;-78
2021/01/21 02:00:54;;;;;;;4.83;3.50;;;8.30;67.10;;;;;;14991350;29;20691;-79
2021/01/21 02:08:22;;;;;;;4.60;3.37;;;;;;;;;;15007966;29;20198;-80
2021/01/21 02:15:54;;;;;;;4.93;3.30;;;;;;;;;;14990595;29;20209;-79
2021/01/21 02:24:02;;;;;;;4.73;3.50;;;9.00;67.40;;;;;;14975105;29;20237;-81
2021/01/21 02:31:56;;;;;;;6.00;3.70;;;;;;;;;;14989806;29;20186;-80
2021/01/21 02:39:27;;;;;;;5.00;3.47;;;8.90;67.40;;;;;;14992321;29;20202;-78
2021/01/21 02:46:58;;;;;;;5.10;3.50;;;;;;;;;;15000036;29;20241;-79
2021/01/21 02:54:32;;;;;;;5.23;3.47;;;;;;;;;;15000088;29;20300;-81
2021/01/21 03:02:00;;;;;;;5.13;3.70;;;7.90;66.80;;;;;;14999716;29;20217;-78
2021/01/21 03:09:28;;;;;;;4.17;3.13;;;;;;;;;;15000371;29;20186;-77
2021/01/21 03:16:56;;;;;;;4.33;3.33;;;8.60;66.60;;;;;;15015341;29;20300;-79
2021/01/21 03:24:27;;;;;;;5.57;3.87;;;8.10;66.20;;;;;;14983115;29;20720;-78
2021/01/21 03:32:00;;;;;;;4.23;3.40;;;;;;;;;;14998252;29;20557;-80
2021/01/21 03:39:52;;;;;;;7.30;3.93;;;;;;;;;;14997486;29;20222;-76
2021/01/21 03:47:38;;;;;;;4.40;3.50;;;;;;;;;;15012243;29;20285;-78
2021/01/21 03:55:08;;;;;;;5.83;3.73;;;;;;;;;;14999686;29;20230;-77
2021/01/21 04:02:34;;;;;;;5.17;3.97;;;7.90;73.70;;;;;;15020894;29;20607;-77
2021/01/21 04:10:16;;;;;;;5.30;3.43;;;;;;;;;;14995591;29;20191;-76
2021/01/21 04:17:58;;;;;;;5.07;3.23;;;;;;;;;;14982206;29;20738;-78
2021/01/21 04:25:28;;;;;;;6.63;3.40;;;;;;;;;;14994936;29;20217;-77
2021/01/21 04:32:59;;;;;;;5.70;3.20;;;;;;;;;;14980142;29;20201;-80
2021/01/21 04:40:29;;;;;;;4.63;3.30;;;;;;;;;;14994275;29;20579;-78
2021/01/21 04:48:15;;;;;;;3.93;2.73;;;;;;;;;;15010333;29;20206;-78
2021/01/21 04:55:56;;;;;;;4.27;3.20;;;7.80;65.70;;;;;;14980031;29;20308;-78
2021/01/21 05:03:43;;;;;;;4.03;2.90;;;;;;;;;;14995738;29;20289;-77
2021/01/21 05:11:33;;;;;;;5.43;2.80;;;;;;;;;;14993298;29;20202;-78
2021/01/21 05:19:26;;;;;;;4.63;3.27;;;;;;;;;;15007714;29;20222;-77
2021/01/21 05:27:11;;;;;;;4.47;2.53;;;;;;;;;;15008299;29;20218;-77
2021/01/21 05:34:48;;;;;;;4.27;2.60;;;;;;;;;;14991295;29;20198;-79
2021/01/21 05:42:25;;;;;;;5.80;3.07;;;;;;;;;;15001699;29;20206;-80
2021/01/21 05:50:17;;;;;;;5.17;3.23;;;;;;;;;;14988869;29;20228;-77
2021/01/21 05:57:45;;;;;;;6.23;3.50;;;;;;;;;;14989524;29;20233;-78
2021/01/21 06:05:15;;;;;;;4.87;3.10;;;;;;;;;;14989636;29;20222;-76
2021/01/21 06:12:46;;;;;;;7.57;3.47;;;8.20;65.20;;;;;;14995978;29;20256;-78
2021/01/21 06:20:12;;;;;;;6.27;3.13;;;;;;;;;;15001671;29;20626;-81
2021/01/21 06:27:41;;;;;;;4.47;3.40;;;;;;;;;;14985894;29;20199;-78
2021/01/21 06:35:11;;;;;;;5.87;3.60;;;;;;;;;;15017351;29;20194;-82
2021/01/21 06:42:38;;;;;;;6.67;3.87;;;;;;;;;;14998760;29;20222;-79
2021/01/21 06:50:05;;;;;;;5.17;3.00;;;;;;;;;;14998906;29;20587;-79
2021/01/21 06:57:43;;;;;;;4.90;3.37;;;;;;;;;;14996937;29;20230;-78
2021/01/21 07:05:10;;;;;;;7.13;4.43;;;;;;;;;;15013007;29;20213;-80
2021/01/21 07:12:39;;;;;;;6.20;3.67;;;;;;;;;;14994730;29;20194;-79
2021/01/21 07:20:11;;;;;;;5.97;3.67;;;8.70;66.10;;;;;;15010925;29;20226;-79
2021/01/21 07:27:37;;;;;;;8.73;4.53;;;;;;;;;;15012045;29;20214;-78
2021/01/21 07:35:38;;;;;;;7.57;4.00;;;;;;;;;;14997823;29;20684;-79
2021/01/21 07:43:05;;;;;;;7.20;4.57;;;;;;;;;;15013334;29;20214;-83
2021/01/21 07:50:40;;;;;;;7.70;4.43;;;;;;;;;;15012002;29;20321;-82
2021/01/21 07:58:37;;;;;;;24.50;5.07;;;;;;;;;;14983055;29;20606;-81
2021/01/21 08:06:10;;;;;;;8.47;4.60;;;;;;;;;;14953689;29;20238;-82
2021/01/21 08:13:38;;;;;;;9.23;4.77;;;;;;;;;;15013496;29;20197;-81
2021/01/21 08:21:25;;;;;;;7.97;4.63;;;;;;;;;;15017280;29;20236;-83
2021/01/21 08:28:57;;;;;;;10.50;5.23;;;;;;;;;;14997032;29;20202;-84
2021/01/21 08:36:29;;;;;;;12.27;4.57;;;8.50;66.10;;;;;;14994297;29;20591;-79
2021/01/21 08:44:00;;;;;;;10.00;4.97;;;;;;;;;;14991389;29;20981;-79
2021/01/21 08:51:37;;;;;;;11.87;4.77;;;;;;;;;;14975855;29;20217;-78
2021/01/21 08:59:19;;;;;;;7.37;4.67;;;;;;;;;;15007450;29;20265;-81
2021/01/21 09:06:48;;;;;;;10.50;5.10;;;;;;;;;;14990442;29;20583;-80
2021/01/21 09:14:18;;;;;;;7.63;4.53;;;;;;;;;;15007524;29;20193;-83
2021/01/21 09:21:59;;;;;;;20.80;5.37;;;;;;;;;;14990170;29;20233;-78
2021/01/21 09:29:41;;;;;;;15.37;4.40;;;;;;;;;;14991016;29;20210;-81
2021/01/21 09:37:09;;;;;;;7.83;4.33;;;;;;;;;;14993549;29;20268;-80
2021/01/21 09:44:36;;;;;;;9.83;5.27;;;;;;;;;;15010180;29;20277;-81
2021/01/21 09:52:06;;;;;;;9.83;5.00;;;;;;;;;;14988620;29;20226;-82
2021/01/21 09:59:34;;;;;;;15.60;5.10;;;;;;;;;;14999805;29;20684;-87
2021/01/21 10:07:04;;;;;;;11.83;4.93;;;;;;;;;;14990513;29;20236;-85
2021/01/21 10:14:31;;;;;;;16.40;6.60;;;;;;;;;;14990967;29;20784;-84
2021/01/21 10:21:58;;;;;;;27.47;7.10;;;;;;;;;;15011006;29;20244;-86
2021/01/21 10:29:27;;;;;;;13.70;5.77;;;;;;;;;;14988430;29;20235;-88
2021/01/21 10:36:57;;;;;;;11.00;4.77;;;;;;;;;;15009639;29;20196;-84
2021/01/21 10:44:25;;;;;;;19.07;4.60;;;;;;;;;;14992918;29;20246;-86
2021/01/21 10:51:56;;;;;;;14.03;4.50;;;;;;;;;;14994798;29;20345;-83
2021/01/21 10:59:25;;;;;;;8.33;3.67;;;;;;;;;;15017230;29;20201;-85
2021/01/21 11:06:53;;;;;;;6.10;2.17;;;;;;;;;;15004455;29;20685;-84
2021/01/21 11:14:20;;;;;;;8.90;1.80;;;;;;;;;;15046754;29;20200;-81
2021/01/21 11:21:47;;;;;;;6.50;1.60;;;;;;;;;;15040575;29;20233;-87
2021/01/21 11:29:14;;;;;;;8.30;1.90;;;;;;;;;;15046133;29;20205;-85
2021/01/21 11:36:41;;;;;;;5.90;1.63;;;;;;;;;;15032223;29;20297;-82
2021/01/21 11:44:11;;;;;;;5.00;1.77;;;;;;;;;;15006271;29;20234;-86
2021/01/21 11:51:40;;;;;;;4.50;1.33;;;;;;;;;;15013525;29;20261;-85
2021/01/21 11:59:07;;;;;;;5.53;1.87;;;;;;;;;;14994792;29;20234;-82
2021/01/21 12:06:35;;;;;;;8.30;1.90;;;;;;;;;;14998830;29;20277;-88
2021/01/21 12:14:05;;;;;;;7.40;1.70;;;;;;;;;;15002890;29;20190;-83
2021/01/21 12:21:36;;;;;;;11.50;1.80;;;;;;;;;;14988760;29;20221;-86
2021/01/21 12:29:04;;;;;;;5.97;1.50;;;;;;;;;;14986450;29;20201;-84
2021/01/21 12:36:32;;;;;;;5.00;1.70;;;;;;;;;;15001872;29;20183;-90
2021/01/21 12:44:10;;;;;;;8.13;1.80;;;;;;;;;;15019282;29;20221;-79
2021/01/21 12:51:40;;;;;;;6.03;1.60;;;;;;;;;;15003783;29;20699;-80
2021/01/21 12:59:14;;;;;;;7.33;1.73;;;;;;;;;;15014186;29;20320;-83
2021/01/21 13:06:47;;;;;;;5.47;1.40;;;;;;;;;;15019035;29;20229;-80
2021/01/21 13:14:14;;;;;;;5.10;1.70;;;;;;;;;;15001868;29;20201;-88
2021/01/21 13:21:44;;;;;;;3.90;1.40;;;;;;;;;;15014779;29;20586;-89
2021/01/21 13:29:13;;;;;;;6.50;1.57;;;;;;;;;;15023586;29;20317;-88
2021/01/21 13:36:41;;;;;;;5.00;1.63;;;;;;;;;;15015977;29;20263;-85
2021/01/21 13:44:08;;;;;;;7.80;1.80;;;;;;;;;;15005599;29;20613;-89
2021/01/21 13:51:36;;;;;;;3.70;1.40;;;;;;;;;;15014793;29;20218;-84
2021/01/21 13:59:05;;;;;;;4.93;1.73;;;;;;;;;;15021880;29;20240;-91
2021/01/21 14:06:32;;;;;;;6.17;1.90;;;;;;;;;;14997622;29;20825;-81
2021/01/21 14:14:02;;;;;;;10.57;2.30;;;;;;;;;;15033930;29;20182;-91
2021/01/21 14:21:31;;;;;;;7.27;1.93;;;;;;;;;;15007950;29;20233;-88
2021/01/21 14:28:58;;;;;;;4.50;2.10;;;;;;;;;;15025602;29;20235;-88
2021/01/21 14:36:27;;;;;;;7.57;2.37;;;;;;;;;;15045360;29;20215;-89
2021/01/21 14:43:57;;;;;;;6.67;2.17;;;;;;;;;;15039782;29;20241;-89
2021/01/21 14:51:26;;;;;;;6.17;1.90;;;;;;;;;;15041011;29;20238;-87
2021/01/21 14:58:53;;;;;;;4.83;2.10;;;;;;;;;;15022915;29;20257;-84
2021/01/21 15:06:24;;;;;;;8.17;1.83;;;;;;;;;;15012628;29;20236;-82
2021/01/21 15:13:51;;;;;;;8.07;1.67;;;;;;;;;;14990123;29;20219;-89
2021/01/21 15:21:19;;;;;;;8.97;2.23;;;;;;;;;;14986088;29;20229;-86
2021/01/21 15:28:47;;;;;;;9.17;2.37;;;;;;;;;;15025957;29;20186;-82
2021/01/21 15:36:15;;;;;;;12.07;3.00;;;;;;;;;;14999327;29;20280;-80
2021/01/21 15:43:50;;;;;;;10.90;2.93;;;;;;;;;;15008446;29;20701;-87
2021/01/21 15:51:17;;;;;;;7.07;3.40;;;;;;;;;;15009583;29;20218;-89
2021/01/21 15:58:45;;;;;;;8.73;3.60;;;;;;;;;;15009556;29;20257;-81
2021/01/21 16:06:12;;;;;;;8.20;3.37;;;;;;;;;;14991751;29;20706;-85
2021/01/21 16:13:43;;;;;;;13.80;3.07;;;;;;;;;;15024093;29;20273;-90
2021/01/21 16:21:10;;;;;;;10.03;3.60;;;;;;;;;;15021420;29;20581;-83
2021/01/21 16:28:40;;;;;;;11.33;3.50;;;;;;;;;;15002344;29;20249;-85
2021/01/21 16:36:09;;;;;;;10.63;2.87;;;;;;;;;;15022086;29;20281;-84
2021/01/21 16:43:36;;;;;;;6.40;2.73;;;;;;;;;;15003477;29;20256;-81
2021/01/21 16:51:04;;;;;;;9.90;3.07;;;;;;;;;;15040668;29;20308;-85
2021/01/21 16:58:31;;;;;;;12.00;3.87;;;;;;;;;;15005908;29;20309;-89
2021/01/21 17:05:58;;;;;;;8.80;3.43;;;;;;;;;;15018940;29;20730;-86
2021/01/21 17:13:27;;;;;;;6.70;3.53;;;;;;;;;;15014189;29;20281;-81
2021/01/21 17:20:54;;;;;;;11.93;3.80;;;;;;;;;;15015696;29;20222;-83
2021/01/21 17:28:20;;;;;;;8.60;3.77;;;;;;;;;;15025391;29;20271;-87
2021/01/21 17:35:49;;;;;;;7.07;3.57;;;;;;;;;;15011431;29;20211;-92
2021/01/21 17:43:16;;;;;;;8.80;3.80;;;;;;;;;;15031681;29;20220;-85
2021/01/21 17:50:43;;;;;;;8.90;3.87;;;;;;;;;;15034776;29;20198;-84
2021/01/21 17:58:11;;;;;;;9.30;3.80;;;11.40;59.50;;;;;;15025466;29;20245;-79
2021/01/21 18:05:38;;;;;;;9.10;4.53;;;;;;;;;;14999843;29;20704;-86
2021/01/21 18:13:05;;;;;;;11.90;4.33;;;;;;;;;;15009255;29;20208;-88
2021/01/21 18:20:33;;;;;;;9.33;3.90;;;;;;;;;;15023686;29;20217;-90
2021/01/21 18:28:00;;;;;;;10.17;4.47;;;;;;;;;;15021043;29;20676;-85
2021/01/21 18:35:27;;;;;;;9.50;4.13;;;;;;;;;;14998568;29;20618;-81
2021/01/21 18:42:56;;;;;;;9.80;3.80;;;;;;;;;;14998315;29;20225;-80
2021/01/21 18:50:31;;;;;;;9.17;3.83;;;;;;;;;;15022265;29;20222;-85
2021/01/21 18:57:59;;;;;;;9.77;4.47;;;;;;;;;;15020944;29;20242;-83
2021/01/21 19:05:28;;;;;;;6.87;3.77;;;;;;;;;;15003282;29;20217;-80
2021/01/21 19:12:55;;;;;;;6.77;3.80;;;;;;;;;;15020612;29;20217;-80
2021/01/21 19:20:23;;;;;;;7.53;3.97;;;;;;;;;;14990303;29;20228;-83
2021/01/21 19:27:55;;;;;;;10.70;5.37;;;;;;;;;;15036799;29;20217;-86
2021/01/21 19:35:25;;;;;;;8.57;4.60;;;;;;;;;;15008638;29;20249;-82
2021/01/21 19:42:52;;;;;;;11.60;5.80;;;;;;;;;;14998952;29;20257;-79
2021/01/21 19:50:20;;;;;;;8.87;5.70;;;;;;;;;;14983950;29;20230;-90
2021/01/21 19:57:48;;;;;;;10.60;5.67;;;;;;;;;;15019061;29;20672;-84
2021/01/21 20:05:15;;;;;;;10.03;5.90;;;;;;;;;;14983335;29;20328;-84
2021/01/21 20:12:42;;;;;;;9.10;5.70;;;;;;;;;;15001345;29;20236;-84
2021/01/21 20:20:11;;;;;;;10.30;6.47;;;;;;;;;;15000321;29;20608;-84
2021/01/21 20:27:38;;;;;;;9.90;6.30;;;;;;;;;;15000311;29;20226;-86
2021/01/21 20:35:06;;;;;;;11.10;7.13;;;;;;;;;;15022308;29;20233;-89
2021/01/21 20:42:34;;;;;;;12.63;6.97;;;;;;;;;;14992424;29;20693;-82
2021/01/21 20:50:02;;;;;;;11.73;6.97;;;;;;;;;;15021409;29;20221;-86
2021/01/21 20:57:29;;;;;;;10.10;7.10;;;;;;;;;;15025847;29;20767;-87
2021/01/21 21:04:56;;;;;;;12.63;8.30;;;;;;;;;;15012905;29;20210;-89
2021/01/21 21:12:23;;;;;;;14.47;7.87;;;;;;;;;;15039817;29;20210;-88
2021/01/21 21:19:51;;;;;;;11.23;7.63;;;;;;;;;;14999467;29;20577;-88
2021/01/21 21:27:19;;;;;;;13.23;8.00;;;;;;;;;;14999290;29;20225;-85
2021/01/21 21:34:47;;;;;;;12.83;7.73;;;;;;;;;;15013740;29;20189;-88
2021/01/21 21:42:14;;;;;;;11.17;7.40;;;;;;;;;;15018619;29;20233;-89
2021/01/21 21:49:42;;;;;;;14.17;7.20;;;;;;;;;;14995678;29;20248;-89
2021/01/21 21:57:09;;;;;;;11.10;7.03;;;;;;;;;;14996700;29;20253;-80
2021/01/21 22:04:37;;;;;;;9.27;6.30;;;;;;;;;;15013665;29;20290;-89
2021/01/21 22:12:06;;;;;;;9.73;5.83;;;;;;;;;;14989312;29;20201;-80
2021/01/21 22:19:33;;;;;;;11.33;6.60;;;;;;;;;;14978880;29;20630;-80
2021/01/21 22:27:00;;;;;;;9.63;6.13;;;;;;;;;;14993278;29;20229;-84
2021/01/21 22:34:28;;;;;;;9.83;5.70;;;;;;;;;;14995819;29;20649;-81
2021/01/21 22:41:57;;;;;;;11.83;7.20;;;;;;;;;;15021621;29;20186;-82
2021/01/21 22:49:26;;;;;;;11.40;6.63;;;;;;;;;;15007821;29;20230;-87
2021/01/21 22:56:53;;;;;;;13.27;7.07;;;;;;;;;;15025435;29;20613;-78
2021/01/21 23:04:20;;;;;;;10.70;7.17;;;;;;;;;;15016367;29;20221;-83
2021/01/21 23:11:50;;;;;;;10.80;7.33;;;;;;;;;;15017628;29;20277;-82
2021/01/21 23:19:19;;;;;;;12.83;7.50;;;;;;;;;;15001077;29;20217;-82
2021/01/21 23:26:48;;;;;;;11.57;7.23;;;;;;;;;;14999119;29;20201;-81
2021/01/21 23:34:16;;;;;;;12.73;8.23;;;;;;;;;;15000128;29;20195;-89
2021/01/21 23:41:44;;;;;;;11.90;7.43;;;;;;;;;;14999562;29;20198;-84
2021/01/21 23:49:11;;;;;;;10.67;7.30;;;;;;;;;;14991588;29;20234;-81
2021/01/21 23:56:38;;;;;;;12.90;7.63;;;;;;;;;;14977472;29;20256;-81
